Time;durP1;ratioP1;P1;durP2;ratioP2;P2;SDS_P1;SDS_P2;PMS_P1;PMS_P2;Temp;Humidity;BMP_temperature;BMP_pressure;BME280_temperature;BME280_humidity;BME280_pressure;Samples;Min_cycle;Max_cycle;Signal;HPM_P1;HPM_P2
2023/09/24 00:00:25;;;;;;;5.50;2.80;;;;;;;20.26;72.51;101114.98;107267;1253;97944;-60
2023/09/24 00:03:14;;;;;;;9.30;2.50;;;;;;;20.24;72.60;101115.48;107274;1254;98463;-60
2023/09/24 00:05:46;;;;;;;7.70;2.70;;;;;;;20.24;72.24;101118.27;108651;1253;111247;-61
2023/09/24 00:08:14;;;;;;;9.40;2.80;;;;;;;20.24;72.30;101118.73;108649;1255;108739;-61
2023/09/24 00:10:46;;;;;;;7.10;2.60;;;;;;;20.24;72.62;101119.86;108627;1253;108696;-61
2023/09/24 00:13:14;;;;;;;7.30;2.30;;;;;;;20.20;72.97;101114.65;108620;1252;95786;-61
2023/09/24 00:15:42;;;;;;;7.90;2.70;;;;;;;20.16;72.82;101113.77;107529;1253;97714;-60
2023/09/24 00:18:11;;;;;;;9.10;3.30;;;;;;;20.14;72.99;101114.66;107292;1251;111939;-60
2023/09/24 00:20:39;;;;;;;6.70;3.30;;;;;;;20.10;73.21;101115.03;107254;1254;109635;-60
2023/09/24 00:23:08;;;;;;;8.00;2.60;;;;;;;20.07;73.30;101113.90;107256;1254;109432;-60
2023/09/24 00:25:39;;;;;;;8.70;2.40;;;;;;;20.05;73.77;101117.08;107226;1251;97941;-60
2023/09/24 00:28:08;;;;;;;6.30;2.60;;;;;;;20.02;73.56;101115.81;108443;1251;97600;-60
2023/09/24 00:30:36;;;;;;;7.60;2.60;;;;;;;20.00;74.16;101120.96;107262;1256;111245;-60
2023/09/24 00:33:05;;;;;;;8.00;2.90;;;;;;;19.97;73.72;101116.63;107289;1255;108993;-60
2023/09/24 00:35:34;;;;;;;3.80;2.10;;;;;;;19.97;73.78;101113.88;108587;1251;106931;-61
2023/09/24 00:38:03;;;;;;;4.90;2.80;;;;;;;19.96;74.03;101115.27;108612;1251;95705;-61
2023/09/24 00:40:31;;;;;;;7.20;2.40;;;;;;;19.95;73.62;101113.20;107833;1251;97841;-60
2023/09/24 00:43:00;;;;;;;6.00;2.70;;;;;;;19.94;73.26;101116.64;107311;1255;111857;-60
2023/09/24 00:45:29;;;;;;;5.10;2.70;;;;;;;19.91;73.26;101117.33;107273;1251;109335;-60
2023/09/24 00:47:57;;;;;;;6.20;2.70;;;;;;;19.90;73.48;101112.69;108632;1251;108786;-61
2023/09/24 00:50:33;;;;;;;6.90;2.40;;;;;;;19.91;73.31;101116.84;108608;1251;95915;-61
2023/09/24 00:53:02;;;;;;;6.70;2.40;;;;;;;19.92;73.57;101116.94;107736;1251;96048;-60
2023/09/24 00:55:32;;;;;;;6.40;2.40;;;;;;;19.90;73.50;101120.73;107274;1254;111503;-61
2023/09/24 00:58:03;;;;;;;6.40;2.50;;;;;;;19.90;73.49;101122.26;108629;1252;109773;-61
2023/09/24 01:00:34;;;;;;;7.80;3.00;;;;;;;19.89;73.29;101124.39;108044;1251;108351;-61
2023/09/24 01:03:04;;;;;;;10.50;3.00;;;;;;;19.91;73.40;101128.31;108626;1251;95677;-61
2023/09/24 01:05:33;;;;;;;11.70;2.80;;;;;;;19.94;73.14;101135.20;107349;1251;97845;-59
2023/09/24 01:08:01;;;;;;;4.20;2.50;;;;;;;19.95;73.16;101138.16;107240;1254;111636;-60
2023/09/24 01:10:29;;;;;;;8.60;3.20;;;;;;;19.98;73.15;101149.96;107267;1251;109170;-60
2023/09/24 01:12:59;;;;;;;11.40;2.30;;;;;;;20.01;73.12;101152.73;107306;1255;106763;-60
2023/09/24 01:15:27;;;;;;;13.70;3.60;;;;;;;20.02;72.97;101152.95;107294;1253;97835;-61
2023/09/24 01:17:55;;;;;;;10.50;2.60;;;;;;;20.04;72.98;101157.73;108441;1253;97106;-61
2023/09/24 01:20:26;;;;;;;10.90;3.00;;;;;;;20.05;72.84;101161.18;108354;1256;111189;-61
2023/09/24 01:22:55;;;;;;;3.80;2.40;;;;;;;20.07;72.78;101163.86;107282;1252;110168;-61
2023/09/24 01:25:23;;;;;;;7.30;3.10;;;;;;;20.07;72.65;101166.79;107250;1256;108302;-61
2023/09/24 01:27:51;;;;;;;8.30;2.70;;;;;;;20.06;72.78;101165.94;107264;1256;97947;-60
2023/09/24 01:30:20;;;;;;;7.20;2.80;;;;;;;20.03;72.71;101158.89;107273;1253;98350;-60
2023/09/24 01:32:50;;;;;;;6.90;2.60;;;;;;;19.98;72.78;101153.82;107309;1251;111727;-61
2023/09/24 01:35:25;;;;;;;5.80;2.40;;;;;;;19.91;73.09;101155.40;107246;1254;109402;-61
2023/09/24 01:38:05;;;;;;;7.20;2.50;;;;;;;19.86;73.04;101159.95;108386;1253;106935;-60
2023/09/24 01:40:37;;;;;;;10.70;2.50;;;;;;;19.84;73.14;101163.52;108652;1253;95768;-61
2023/09/24 01:43:07;;;;;;;6.50;2.70;;;;;;;19.83;73.31;101167.10;108272;1254;98481;-61
2023/09/24 01:45:40;;;;;;;5.10;2.50;;;;;;;19.83;73.45;101163.79;108667;1252;111562;-61
2023/09/24 01:48:09;;;;;;;7.20;2.50;;;;;;;19.82;73.61;101167.55;108631;1253;108558;-61
2023/09/24 01:50:38;;;;;;;4.90;2.80;;;;;;;19.78;73.34;101170.92;107944;1253;108055;-61
2023/09/24 01:53:08;;;;;;;5.60;2.50;;;;;;;19.77;73.29;101169.28;107261;1254;97853;-61
2023/09/24 01:55:36;;;;;;;5.90;2.90;;;;;;;19.76;73.35;101172.71;107820;1254;98837;-61
2023/09/24 01:58:05;;;;;;;6.50;2.70;;;;;;;19.76;73.68;101178.34;107282;1254;111839;-60
2023/09/24 02:00:34;;;;;;;3.50;2.60;;;;;;;19.72;73.50;101179.84;108657;1252;108369;-59
2023/09/24 02:03:07;;;;;;;7.60;2.80;;;;;;;19.71;73.55;101180.34;108615;1256;106841;-59
2023/09/24 02:05:38;;;;;;;7.10;2.60;;;;;;;19.70;73.65;101175.50;108578;1254;95887;-59
2023/09/24 02:08:09;;;;;;;6.50;2.40;;;;;;;19.69;73.95;101177.52;108635;1254;96077;-59
2023/09/24 02:10:42;;;;;;;6.00;2.60;;;;;;;19.66;73.89;101176.95;108652;1252;111257;-59
2023/09/24 02:13:12;;;;;;;8.90;3.10;;;;;;;19.63;74.66;101178.99;108628;1253;108688;-59
2023/09/24 02:15:43;;;;;;;8.70;3.20;;;;;;;19.59;74.98;101181.10;108596;1252;106863;-59
2023/09/24 02:18:11;;;;;;;5.00;2.20;;;;;;;19.54;74.64;101179.14;108596;1254;95801;-59
2023/09/24 02:20:41;;;;;;;8.50;3.00;;;;;;;19.50;74.75;101179.79;108643;1252;96433;-59
2023/09/24 02:23:11;;;;;;;7.00;2.80;;;;;;;19.47;75.15;101178.29;108565;1251;111084;-59
2023/09/24 02:25:39;;;;;;;5.50;2.60;;;;;;;19.43;75.61;101181.50;108614;1254;109851;-59
2023/09/24 02:28:07;;;;;;;8.80;3.30;;;;;;;19.37;75.58;101185.80;108630;1253;107753;-59
2023/09/24 02:30:36;;;;;;;6.20;3.10;;;;;;;19.36;75.71;101187.60;108622;1253;95627;-59
2023/09/24 02:33:05;;;;;;;5.70;3.10;;;;;;;19.37;75.99;101189.36;107946;1254;96998;-61
2023/09/24 02:35:36;;;;;;;4.40;2.90;;;;;;;19.37;76.12;101191.30;107275;1254;111747;-61
2023/09/24 02:38:08;;;;;;;7.00;3.00;;;;;;;19.38;76.44;101192.48;107225;1254;110543;-61
2023/09/24 02:40:39;;;;;;;3.70;2.90;;;;;;;19.36;76.19;101197.41;108492;1254;107841;-59
2023/09/24 02:43:07;;;;;;;8.90;3.00;;;;;;;19.36;76.49;101195.23;107289;1254;98605;-59
2023/09/24 02:45:35;;;;;;;5.10;3.00;;;;;;;19.35;76.29;101190.13;107258;1256;97791;-61
2023/09/24 02:48:05;;;;;;;6.70;2.90;;;;;;;19.34;76.30;101184.23;107295;1254;111050;-60
2023/09/24 02:50:34;;;;;;;8.20;2.80;;;;;;;19.33;76.85;101185.40;108651;1253;109020;-61
2023/09/24 02:53:04;;;;;;;5.80;3.50;;;;;;;19.31;76.58;101182.05;108628;1252;108320;-61
2023/09/24 02:55:33;;;;;;;7.80;3.10;;;;;;;19.30;77.02;101183.26;107564;1253;97915;-60
2023/09/24 02:58:04;;;;;;;6.10;2.80;;;;;;;19.27;76.89;101186.55;108635;1253;95825;-60
2023/09/24 03:00:35;;;;;;;8.50;2.80;;;;;;;19.25;77.06;101190.58;108626;1254;112088;-60
2023/09/24 03:03:09;;;;;;;9.20;2.60;;;;;;;19.24;77.06;101189.58;108624;1254;109651;-60
2023/09/24 03:05:38;;;;;;;4.50;2.90;;;;;;;19.23;77.60;101191.52;108667;1254;107713;-61
2023/09/24 03:08:09;;;;;;;9.70;3.10;;;;;;;19.19;77.27;101188.02;108386;1254;97000;-59
2023/09/24 03:10:38;;;;;;;5.70;3.20;;;;;;;19.16;77.39;101187.31;108502;1251;96096;-60
2023/09/24 03:13:06;;;;;;;4.20;3.10;;;;;;;19.15;77.79;101193.27;107312;1254;111751;-60
2023/09/24 03:15:34;;;;;;;2.80;2.40;;;;;;;19.13;77.92;101193.33;107328;1254;108593;-60
2023/09/24 03:18:04;;;;;;;6.50;3.30;;;;;;;19.12;77.64;101196.88;108624;1253;108039;-60
2023/09/24 03:20:33;;;;;;;14.70;3.70;;;;;;;19.12;77.58;101196.46;107473;1254;97856;-60
2023/09/24 03:23:02;;;;;;;4.40;2.60;;;;;;;19.13;77.50;101198.54;107087;1254;97919;-60
2023/09/24 03:25:32;;;;;;;5.70;3.10;;;;;;;19.13;77.70;101197.30;107179;1255;111392;-61
2023/09/24 03:28:01;;;;;;;5.80;3.30;;;;;;;19.11;77.74;101197.94;107137;1256;109948;-60
2023/09/24 03:30:31;;;;;;;6.80;3.30;;;;;;;19.09;77.81;101203.40;107187;1254;108316;-59
2023/09/24 03:33:00;;;;;;;9.80;3.30;;;;;;;19.05;78.02;101199.84;108518;1256;96324;-60
2023/09/24 03:35:30;;;;;;;6.30;3.20;;;;;;;19.05;78.34;101202.23;107291;1254;98376;-60
2023/09/24 03:37:59;;;;;;;6.70;3.30;;;;;;;19.01;78.61;101200.56;107326;1254;111661;-60
2023/09/24 03:40:28;;;;;;;5.50;3.60;;;;;;;18.96;79.00;101203.42;107240;1253;109606;-60
2023/09/24 03:42:57;;;;;;;9.70;3.60;;;;;;;18.91;79.85;101202.38;108614;1253;107191;-61
2023/09/24 03:45:25;;;;;;;7.20;3.20;;;;;;;18.84;79.78;101200.14;108597;1254;96053;-61
2023/09/24 03:47:56;;;;;;;4.70;2.90;;;;;;;18.79;80.52;101202.31;108666;1252;96360;-61
2023/09/24 03:50:26;;;;;;;7.50;3.50;;;;;;;18.73;80.95;101196.96;108637;1252;110775;-61
2023/09/24 03:52:56;;;;;;;5.80;3.70;;;;;;;18.68;81.20;101193.20;107950;1254;109812;-60
2023/09/24 03:55:25;;;;;;;6.50;3.60;;;;;;;18.63;81.25;101194.38;107337;1254;108605;-61
2023/09/24 03:57:53;;;;;;;6.70;3.60;;;;;;;18.59;81.36;101201.00;107307;1254;97804;-60
2023/09/24 04:00:22;;;;;;;7.80;5.10;;;;;;;18.58;81.66;101205.43;107279;1254;97818;-60
2023/09/24 04:02:51;;;;;;;8.40;3.90;;;;;;;18.58;81.49;101208.23;107206;1257;112053;-60
2023/09/24 04:05:22;;;;;;;7.40;3.50;;;;;;;18.58;81.36;101210.72;107242;1254;109483;-60
2023/09/24 04:07:54;;;;;;;5.60;3.50;;;;;;;18.58;81.18;101209.08;107244;1256;107500;-60
2023/09/24 04:10:27;;;;;;;7.70;3.60;;;;;;;18.59;81.50;101211.33;108611;1254;95801;-61
2023/09/24 04:12:57;;;;;;;7.70;3.70;;;;;;;18.61;81.60;101211.84;108016;1254;95812;-60
2023/09/24 04:15:28;;;;;;;4.40;3.60;;;;;;;18.63;81.46;101213.06;107243;1256;110883;-60
2023/09/24 04:18:02;;;;;;;12.90;4.20;;;;;;;18.65;81.28;101217.39;108652;1253;109958;-60
2023/09/24 04:20:33;;;;;;;7.30;5.20;;;;;;;18.69;81.11;101222.70;108643;1253;108231;-60
2023/09/24 04:23:02;;;;;;;4.80;3.60;;;;;;;18.74;81.13;101226.86;108617;1256;95960;-61
2023/09/24 04:25:30;;;;;;;8.40;4.20;;;;;;;18.80;80.97;101234.70;108654;1254;96105;-60
2023/09/24 04:27:59;;;;;;;7.50;3.60;;;;;;;18.85;80.93;101230.86;107418;1254;109830;-60
2023/09/24 04:30:28;;;;;;;8.30;3.90;;;;;;;18.89;80.76;101229.54;108583;1251;109059;-59
2023/09/24 04:32:58;;;;;;;10.80;4.50;;;;;;;18.91;80.70;101225.06;108560;1253;107622;-61
2023/09/24 04:35:27;;;;;;;8.90;3.50;;;;;;;18.95;80.53;101224.41;108546;1254;95861;-61
2023/09/24 04:37:56;;;;;;;6.50;3.40;;;;;;;18.99;80.77;101225.08;108563;1252;96161;-61
2023/09/24 04:40:25;;;;;;;10.70;3.90;;;;;;;19.02;80.58;101233.85;108538;1254;111456;-61
2023/09/24 04:42:53;;;;;;;4.90;3.70;;;;;;;19.03;80.70;101234.63;108506;1253;108005;-61
2023/09/24 04:45:21;;;;;;;7.60;3.70;;;;;;;19.04;80.87;101233.63;108516;1254;107200;-61
2023/09/24 04:47:50;;;;;;;6.10;3.60;;;;;;;19.03;81.17;101241.28;108546;1253;95724;-61
2023/09/24 04:50:18;;;;;;;8.80;4.30;;;;;;;19.02;81.43;101252.36;108552;1253;96143;-61
2023/09/24 04:52:47;;;;;;;11.80;3.90;;;;;;;19.03;81.36;101258.73;108651;1251;112473;-61
2023/09/24 04:55:16;;;;;;;4.20;3.60;;;;;;;19.06;81.37;101261.11;108671;1254;108358;-61
2023/09/24 04:57:45;;;;;;;7.70;4.10;;;;;;;19.12;81.15;101269.95;108205;1254;108871;-61
2023/09/24 05:00:15;;;;;;;6.00;3.80;;;;;;;19.17;80.94;101278.67;108626;1254;96038;-61
2023/09/24 05:02:45;;;;;;;7.00;3.60;;;;;;;19.22;80.93;101285.99;108645;1253;96148;-62
2023/09/24 05:05:14;;;;;;;9.50;4.20;;;;;;;19.29;80.75;101292.13;108631;1255;111956;-62
2023/09/24 05:07:44;;;;;;;6.20;3.70;;;;;;;19.36;80.51;101297.34;107816;1254;108920;-61
2023/09/24 05:10:12;;;;;;;14.80;3.90;;;;;;;19.43;80.55;101300.30;107285;1255;107628;-61
2023/09/24 05:12:41;;;;;;;10.30;3.50;;;;;;;19.50;80.36;101302.23;107226;1256;97733;-62
2023/09/24 05:15:10;;;;;;;6.60;3.80;;;;;;;19.55;80.32;101305.20;107307;1254;98452;-60
2023/09/24 05:17:39;;;;;;;9.90;4.70;;;;;;;19.60;80.20;101306.83;107226;1256;112380;-61
2023/09/24 05:20:09;;;;;;;5.90;4.10;;;;;;;19.65;80.10;101318.32;107332;1254;109785;-62
2023/09/24 05:22:39;;;;;;;7.70;3.50;;;;;;;19.69;80.10;101323.02;107357;1254;108422;-62
2023/09/24 05:25:08;;;;;;;9.30;3.50;;;;;;;19.74;79.91;101327.57;108628;1254;95830;-61
2023/09/24 05:27:36;;;;;;;9.10;4.00;;;;;;;19.80;79.82;101338.49;108415;1254;98453;-61
2023/09/24 05:30:09;;;;;;;12.80;3.50;;;;;;;19.85;79.73;101340.59;107277;1256;112672;-61
2023/09/24 05:32:38;;;;;;;8.00;3.50;;;;;;;19.91;79.68;101330.82;108654;1254;109996;-61
2023/09/24 05:35:07;;;;;;;12.00;4.30;;;;;;;19.97;79.42;101327.94;108676;1252;107555;-61
2023/09/24 05:37:36;;;;;;;5.10;3.60;;;;;;;20.01;78.96;101329.06;108641;1253;95880;-61
2023/09/24 05:40:05;;;;;;;5.80;3.90;;;;;;;20.06;78.82;101338.33;108619;1254;96349;-61
2023/09/24 05:42:33;;;;;;;7.20;3.50;;;;;;;20.11;78.75;101341.94;107928;1252;110671;-62
2023/09/24 05:45:01;;;;;;;10.00;3.60;;;;;;;20.15;78.77;101344.13;107269;1254;109045;-61
2023/09/24 05:47:30;;;;;;;7.60;3.80;;;;;;;20.18;78.77;101346.92;107239;1256;108591;-61
2023/09/24 05:49:59;;;;;;;6.90;3.20;;;;;;;20.22;78.48;101346.44;107240;1254;97828;-62
2023/09/24 05:52:28;;;;;;;3.80;3.00;;;;;;;20.27;78.46;101341.89;107316;1256;97998;-62
2023/09/24 05:54:57;;;;;;;6.70;3.30;;;;;;;20.29;78.15;101344.02;107299;1256;112688;-61
2023/09/24 05:57:26;;;;;;;5.10;3.20;;;;;;;20.31;78.07;101347.88;107292;1254;108633;-60
2023/09/24 05:59:56;;;;;;;7.60;3.30;;;;;;;20.35;78.13;101354.37;107234;1256;108555;-61
2023/09/24 06:02:25;;;;;;;9.40;3.20;;;;;;;20.38;78.05;101358.16;107233;1254;97837;-62
2023/09/24 06:04:54;;;;;;;13.30;3.60;;;;;;;20.41;77.74;101355.77;107290;1254;97726;-62
2023/09/24 06:07:24;;;;;;;3.70;3.20;;;;;;;20.45;77.80;101362.80;108095;1256;111523;-62
2023/09/24 06:09:53;;;;;;;6.60;2.90;;;;;;;20.50;77.80;101376.75;107245;1256;109959;-61
2023/09/24 06:12:24;;;;;;;6.70;3.10;;;;;;;20.56;77.82;101383.05;107256;1254;108662;-61
2023/09/24 06:14:52;;;;;;;6.30;3.20;;;;;;;20.60;77.32;101381.98;107262;1256;97865;-62
2023/09/24 06:17:20;;;;;;;9.10;3.80;;;;;;;20.62;77.20;101377.98;107329;1256;98083;-61
2023/09/24 06:19:49;;;;;;;5.20;3.50;;;;;;;20.70;77.06;101385.54;107328;1256;111633;-62
2023/09/24 06:22:17;;;;;;;6.20;3.50;;;;;;;20.80;76.99;101396.02;107224;1256;109542;-62
2023/09/24 06:24:46;;;;;;;6.10;3.30;;;;;;;20.93;76.74;101396.60;108627;1255;108088;-61
2023/09/24 06:27:15;;;;;;;6.90;2.70;;;;;;;21.03;76.41;101393.09;108621;1252;96385;-61
2023/09/24 06:29:44;;;;;;;7.60;3.20;;;;;;;21.11;76.00;101394.36;108649;1253;96042;-62
2023/09/24 06:32:12;;;;;;;4.40;3.00;;;;;;;21.20;75.78;101401.59;108590;1254;110681;-61
2023/09/24 06:34:40;;;;;;;8.10;3.20;;;;;;;21.31;75.32;101403.90;108609;1254;110360;-60
2023/09/24 06:37:09;;;;;;;8.00;3.50;;;;;;;21.46;75.47;101401.46;108244;1254;108417;-60
2023/09/24 06:39:37;;;;;;;12.20;3.20;;;;;;;21.58;74.84;101397.86;107243;1254;98117;-61
2023/09/24 06:42:06;;;;;;;11.50;3.70;;;;;;;21.58;73.21;101399.83;107627;1256;97976;-61
2023/09/24 06:44:35;;;;;;;5.80;2.90;;;;;;;21.55;72.57;101401.34;107241;1254;112238;-61
2023/09/24 06:47:03;;;;;;;9.70;3.20;;;;;;;21.53;72.48;101405.20;107255;1256;109031;-61
2023/09/24 06:49:32;;;;;;;5.70;3.10;;;;;;;21.57;72.60;101405.59;107190;1253;107676;-62
2023/09/24 06:52:00;;;;;;;5.10;3.10;;;;;;;21.64;72.32;101403.29;107265;1255;97799;-61
2023/09/24 06:54:28;;;;;;;8.30;3.00;;;;;;;21.70;72.21;101409.09;107139;1255;98484;-61
2023/09/24 06:56:57;;;;;;;10.90;2.80;;;;;;;21.74;71.90;101411.52;107153;1256;111057;-61
2023/09/24 06:59:26;;;;;;;8.70;2.60;;;;;;;21.78;71.38;101412.11;107134;1256;110047;-61
2023/09/24 07:01:54;;;;;;;12.10;2.80;;;;;;;21.83;71.35;101415.70;107271;1253;108349;-61
2023/09/24 07:04:23;;;;;;;7.60;2.30;;;;;;;21.89;70.71;101424.81;107226;1254;97847;-61
2023/09/24 07:06:51;;;;;;;7.70;2.40;;;;;;;21.91;69.97;101426.91;107250;1257;99509;-61
2023/09/24 07:09:20;;;;;;;5.40;2.40;;;;;;;21.91;69.57;101430.20;108204;1255;111730;-60
2023/09/24 07:11:48;;;;;;;6.70;2.80;;;;;;;21.94;69.23;101427.48;107252;1254;109192;-61
2023/09/24 07:14:19;;;;;;;5.90;2.40;;;;;;;22.02;69.27;101432.10;107231;1255;109155;-60
2023/09/24 07:16:48;;;;;;;8.50;2.30;;;;;;;22.11;69.28;101429.63;107279;1255;97728;-61
2023/09/24 07:19:18;;;;;;;4.50;3.10;;;;;;;22.21;68.89;101428.58;107237;1256;97746;-61
2023/09/24 07:21:49;;;;;;;4.50;2.40;;;;;;;22.29;68.64;101432.31;108524;1254;112266;-61
2023/09/24 07:24:17;;;;;;;4.10;2.40;;;;;;;22.39;68.53;101432.35;107277;1256;110203;-62
2023/09/24 07:26:45;;;;;;;7.40;2.70;;;;;;;22.47;68.35;101434.16;108640;1254;107823;-62
2023/09/24 07:29:14;;;;;;;10.90;3.10;;;;;;;22.59;68.20;101431.42;108267;1255;97823;-63
2023/09/24 07:31:42;;;;;;;7.70;2.40;;;;;;;22.71;66.86;101430.58;107313;1254;97950;-60
2023/09/24 07:34:11;;;;;;;3.20;2.40;;;;;;;22.77;66.54;101428.98;107294;1254;111177;-61
2023/09/24 07:36:39;;;;;;;5.50;2.50;;;;;;;22.82;66.46;101424.77;107301;1254;109930;-61
2023/09/24 07:39:20;;;;;;;9.90;3.00;;;;;;;22.86;65.30;101423.66;107211;1255;108312;-61
2023/09/24 07:41:49;;;;;;;5.50;3.10;;;;;;;22.86;65.22;101424.50;107308;1255;97835;-61
2023/09/24 07:44:18;;;;;;;6.30;2.70;;;;;;;22.91;65.41;101426.94;107247;1254;97825;-61
2023/09/24 07:46:48;;;;;;;11.20;2.90;;;;;;;23.00;65.44;101429.52;107272;1254;112249;-61
2023/09/24 07:49:17;;;;;;;6.30;2.80;;;;;;;23.11;65.06;101432.91;108660;1254;110324;-61
2023/09/24 07:51:45;;;;;;;6.40;3.40;;;;;;;23.22;64.88;101437.17;108668;1251;108667;-60
2023/09/24 07:54:13;;;;;;;6.10;2.70;;;;;;;23.34;64.45;101442.16;107339;1254;97855;-61
2023/09/24 07:56:43;;;;;;;6.50;3.30;;;;;;;23.43;63.47;101446.90;107331;1254;98369;-62
2023/09/24 07:59:11;;;;;;;5.60;3.10;;;;;;;23.52;63.07;101446.87;107224;1254;112027;-62
2023/09/24 08:01:41;;;;;;;5.70;2.80;;;;;;;23.61;63.09;101440.27;107222;1256;109630;-61
2023/09/24 08:04:09;;;;;;;8.10;2.70;;;;;;;23.71;62.99;101437.34;107278;1257;108460;-61
2023/09/24 08:06:38;;;;;;;7.30;2.80;;;;;;;23.83;63.04;101435.80;107319;1255;97838;-61
2023/09/24 08:09:06;;;;;;;8.00;3.00;;;;;;;23.96;62.45;101436.73;107321;1254;97785;-61
2023/09/24 08:11:53;;;;;;;6.70;2.50;;;;;;;24.08;61.55;101440.39;107502;1256;111341;-60
2023/09/24 08:14:21;;;;;;;6.30;2.50;;;;;;;24.18;60.58;101437.73;107277;1255;108967;-60
2023/09/24 08:16:50;;;;;;;22.10;3.40;;;;;;;24.25;61.08;101432.23;107313;1254;107751;-61
2023/09/24 08:19:18;;;;;;;5.50;3.10;;;;;;;24.40;60.22;101434.61;107207;1254;98324;-62
2023/09/24 08:21:47;;;;;;;10.60;3.00;;;;;;;24.55;60.18;101436.27;107316;1254;98474;-61
2023/09/24 08:24:15;;;;;;;7.20;2.70;;;;;;;24.74;60.25;101437.20;107309;1253;113265;-61
2023/09/24 08:26:43;;;;;;;5.30;2.70;;;;;;;24.85;60.21;101434.48;107250;1256;108505;-61
2023/09/24 08:29:12;;;;;;;7.10;3.50;;;;;;;25.00;59.83;101429.56;107217;1257;106973;-61
2023/09/24 08:31:40;;;;;;;7.70;2.90;;;;;;;25.20;59.24;101431.86;107223;1254;97848;-60
2023/09/24 08:34:09;;;;;;;6.30;3.70;;;;;;;25.36;58.25;101434.34;107309;1254;97768;-61
2023/09/24 08:36:37;;;;;;;6.60;2.50;;;;;;;25.55;57.85;101432.66;108643;1254;111217;-61
2023/09/24 08:39:06;;;;;;;5.70;2.50;;;;;;;25.72;57.52;101426.84;108629;1255;110450;-62
2023/09/24 08:41:42;;;;;;;13.10;2.80;;;;;;;25.88;57.14;101423.80;107526;1254;108799;-62
2023/09/24 08:44:17;;;;;;;10.10;3.10;;;;;;;26.09;56.58;101414.72;107296;1254;98141;-61
2023/09/24 08:46:50;;;;;;;4.10;2.50;;;;;;;26.29;56.53;101413.89;107992;1253;97072;-62
2023/09/24 08:49:20;;;;;;;9.10;3.20;;;;;;;26.51;55.87;101408.69;108694;1254;111431;-62
2023/09/24 08:51:49;;;;;;;6.70;2.80;;;;;;;26.71;54.66;101409.79;107678;1254;109622;-61
2023/09/24 08:54:17;;;;;;;5.30;2.60;;;;;;;26.91;54.96;101400.51;107268;1257;108487;-61
2023/09/24 08:56:46;;;;;;;8.20;3.00;;;;;;;27.18;54.18;101404.63;107226;1254;97842;-62
2023/09/24 08:59:14;;;;;;;6.80;2.60;;;;;;;27.48;53.84;101409.63;108620;1253;96051;-61
2023/09/24 09:01:52;;;;;;;8.00;2.20;;;;;;;27.75;52.86;101398.77;108640;1252;110386;-61
2023/09/24 09:04:21;;;;;;;6.30;2.20;;;;;;;28.03;50.75;101396.98;108441;1253;110858;-61
2023/09/24 09:06:49;;;;;;;12.40;2.60;;;;;;;28.27;50.48;101395.75;108510;1255;108384;-62
2023/09/24 09:09:27;;;;;;;4.90;2.10;;;;;;;28.55;49.46;101399.61;108587;1254;96836;-61
2023/09/24 09:11:55;;;;;;;8.50;2.70;;;;;;;28.81;48.75;101405.38;108605;1251;97288;-62
2023/09/24 09:14:35;;;;;;;7.40;2.80;;;;;;;29.20;48.62;101402.58;108644;1255;111972;-61
2023/09/24 09:17:03;;;;;;;8.00;2.40;;;;;;;29.82;47.91;101401.27;108672;1251;108470;-61
2023/09/24 09:19:56;;;;;;;6.80;2.60;;;;;;;30.25;46.65;101398.35;108589;1252;107647;-61
2023/09/24 09:22:28;;;;;;;5.80;1.90;;;;;;;30.71;45.06;101401.92;108155;1254;96398;-61
2023/09/24 09:25:05;;;;;;;8.30;1.90;;;;;;;30.72;44.45;101404.01;108632;1254;95747;-61
2023/09/24 09:27:37;;;;;;;5.00;1.90;;;;;;;31.23;44.75;101404.98;108633;1254;111235;-61
2023/09/24 09:30:20;;;;;;;7.20;2.30;;;;;;;31.90;43.75;101398.84;108606;1251;109600;-61
2023/09/24 09:32:49;;;;;;;8.80;1.80;;;;;;;32.68;42.68;101395.58;108634;1251;108122;-61
2023/09/24 09:35:18;;;;;;;5.00;1.90;;;;;;;33.35;41.68;101395.41;107337;1251;97841;-60
2023/09/24 09:37:52;;;;;;;8.90;1.50;;;;;;;34.08;41.10;101400.20;107300;1254;98520;-60
2023/09/24 09:40:21;;;;;;;4.30;1.70;;;;;;;34.70;39.60;101399.88;107311;1251;111405;-61
2023/09/24 09:42:50;;;;;;;6.10;1.50;;;;;;;35.20;38.24;101394.73;107289;1251;109019;-61
2023/09/24 09:45:19;;;;;;;7.90;2.00;;;;;;;35.66;37.56;101394.94;108639;1251;107728;-61
2023/09/24 09:48:01;;;;;;;4.20;2.00;;;;;;;36.13;36.54;101396.38;107906;1257;97839;-62
2023/09/24 09:50:38;;;;;;;3.90;1.40;;;;;;;36.61;35.74;101397.35;108662;1253;95603;-61
2023/09/24 09:53:09;;;;;;;3.60;1.60;;;;;;;36.92;33.36;101394.81;108674;1251;111983;-60
2023/09/24 09:55:42;;;;;;;4.90;1.70;;;;;;;36.96;32.92;101394.88;108056;1255;109713;-61
2023/09/24 09:58:11;;;;;;;;;;;;;;;37.24;33.16;101396.41;107277;1251;107212;-61
2023/09/24 10:00:53;;;;;;;5.10;2.20;;;;;;;37.20;33.47;101397.02;107935;1254;97839;-61
2023/09/24 10:03:23;;;;;;;6.30;1.90;;;;;;;36.99;32.99;101399.54;108654;1252;96285;-61
2023/09/24 10:05:54;;;;;;;9.80;1.50;;;;;;;37.20;32.16;101396.30;108591;1254;110684;-61
2023/09/24 10:08:43;;;;;;;4.70;1.60;;;;;;;37.37;32.48;101398.85;107986;1251;300219;-61
2023/09/24 10:11:32;;;;;;;5.60;2.00;;;;;;;37.89;31.89;101387.31;107182;1251;109275;-62
2023/09/24 10:14:04;;;;;;;5.30;2.00;;;;;;;38.50;31.45;101388.95;107657;1254;98076;-62
2023/09/24 10:16:38;;;;;;;3.10;1.90;;;;;;;38.98;30.65;101390.38;107268;1257;97808;-61
2023/09/24 10:19:13;;;;;;;13.50;1.60;;;;;;;39.29;29.65;101391.40;107619;1251;112186;-61
2023/09/24 10:21:44;;;;;;;6.10;1.80;;;;;;;38.86;28.18;101390.40;107306;1251;109681;-61
2023/09/24 10:24:12;;;;;;;5.80;1.60;;;;;;;38.07;29.26;101393.31;108621;1251;106920;-61
2023/09/24 10:26:50;;;;;;;4.20;1.70;;;;;;;38.12;30.22;101389.19;108657;1251;95911;-61
2023/09/24 10:29:19;;;;;;;2.40;1.30;;;;;;;38.68;29.07;101382.79;108575;1253;96068;-61
2023/09/24 10:32:06;;;;;;;8.40;1.40;;;;;;;38.92;28.60;101380.56;107725;1254;112287;-61
2023/09/24 10:34:59;;;;;;;3.60;1.90;;;;;;;39.00;29.02;101379.27;107309;1254;110020;-62
2023/09/24 10:37:30;;;;;;;6.00;1.60;;;;;;;39.28;28.50;101370.06;107278;1255;107169;-61
2023/09/24 10:40:07;;;;;;;8.60;1.50;;;;;;;39.58;27.82;101368.48;107844;1254;97845;-61
2023/09/24 10:42:38;;;;;;;3.70;1.70;;;;;;;39.62;27.93;101369.89;108679;1252;96051;-60
2023/09/24 10:45:06;;;;;;;1.90;1.30;;;;;;;39.87;27.64;101373.18;108654;1252;110628;-61
2023/09/24 10:47:44;;;;;;;5.20;1.60;;;;;;;40.00;26.90;101371.36;108655;1254;110575;-61
2023/09/24 10:50:18;;;;;;;6.80;1.50;;;;;;;40.31;26.81;101367.46;108577;1253;108710;-60
2023/09/24 10:53:02;;;;;;;4.30;1.50;;;;;;;40.37;26.74;101363.58;108667;1253;96282;-61
2023/09/24 10:55:40;;;;;;;4.50;1.20;;;;;;;40.64;26.60;101359.55;108055;1253;96318;-60
2023/09/24 10:58:15;;;;;;;8.40;1.50;;;;;;;40.90;26.06;101359.11;108664;1252;110575;-60
2023/09/24 11:00:49;;;;;;;4.80;1.50;;;;;;;40.69;24.95;101359.60;108663;1254;110316;-60
2023/09/24 11:03:17;;;;;;;4.40;1.60;;;;;;;40.43;25.40;101353.89;107940;1254;107318;-60
2023/09/24 11:05:48;;;;;;;5.60;1.40;;;;;;;40.11;25.88;101355.92;107331;1254;97863;-60
2023/09/24 11:08:18;;;;;;;13.50;1.30;;;;;;;40.41;26.10;101356.16;107297;1254;97747;-60
2023/09/24 11:10:48;;;;;;;3.10;1.50;;;;;;;40.54;25.75;101357.10;107252;1254;110968;-60
2023/09/24 11:13:17;;;;;;;5.00;1.30;;;;;;;40.60;26.09;101354.28;108578;1251;109103;-61
2023/09/24 11:15:45;;;;;;;4.60;1.50;;;;;;;40.58;25.37;101358.46;108451;1252;109353;-61
2023/09/24 11:18:14;;;;;;;8.10;1.40;;;;;;;40.56;26.09;101357.55;107240;1253;97826;-61
2023/09/24 11:20:51;;;;;;;3.30;1.20;;;;;;;40.68;25.49;101353.28;107297;1256;98363;-61
2023/09/24 11:23:20;;;;;;;8.40;1.60;;;;;;;40.52;25.70;101350.45;108631;1253;112117;-61
2023/09/24 11:25:50;;;;;;;2.20;1.20;;;;;;;40.33;25.55;101353.02;108635;1253;109304;-61